Isanti, Minnesota
Current Conditions -  °F | °C
As of 4:15 AM on Saturday 20 Dec 2014 (Local Time) from KCBG Reporting Station
Haze Haze  
Wind Chill: 24°   Ceiling: 1100
Heat Index: 30°   Visibility: 5mi
Dew Point: 23°   Wind: 6mph
Humidity: 75%   Direction: 150°SSE
Pressure: 30.12"   Gusts: NA
Location:  45.49°N, 93.25°W
Report Text: KCBG 201015Z AUTO 15005KT 5SM HZ BKN011 M01/M05 A3012 RMK AO2
Loading
Personal Weather Stations






























Interactive Weather Map New forecast layout! Learn more

10-Day Weather Forecast

Advertisements
Track Severe Weather on mobile